Concord, Indiana
Current Conditions -  °F | °C
As of 4:50 PM on Saturday 25 Oct 2014 (Local Time) from KEKM Reporting Station
Clear Clear  
Wind Chill: 68°   Ceiling: Unl
Heat Index: 68°   Visibility: 10mi
Dew Point: 34°   Wind: 14mph
Humidity: 28%   Direction: 290°WNW
Pressure: 29.9"   Gusts: 29mph
Location:  41.6236°N, 85.9974°W
Report Text: KEKM 252050Z 29012G25KT 10SM CLR 20/01 A2990 RMK AO2 LAST
Loading
Personal Weather Stations






























Interactive Weather Map
Tropical Storm Tracking
New forecast layout! Learn more

10-Day Weather Forecast

Advertisements
Track Severe Weather on mobile